Pantego, North Carolina
Current Conditions -  °F | °C
As of 12:35 AM on Tuesday 27 Jan 2015 (Local Time) from KOCW Reporting Station
Overcast Overcast  
Wind Chill: 34°   Ceiling: 1800
Heat Index: 41°   Visibility: 10mi
Dew Point: 37°   Wind: 10mph
Humidity: 86%   Direction: 340°NNW
Pressure: 29.65"   Gusts: NA
Location:  35.59°N, 76.66°W
Report Text: KOCW 270535Z AUTO 34009KT 10SM OVC018 05/03 A2965 RMK AO2 T00480026
Loading
Personal Weather Stations






























Interactive Weather Map New forecast layout! Learn more

10-Day Weather Forecast

Advertisements
Track Severe Weather on mobile